Time;durP1;ratioP1;P1;durP2;ratioP2;P2;SDS_P1;SDS_P2;PMS_P1;PMS_P2;Temp;Humidity;BMP_temperature;BMP_pressure;BME280_temperature;BME280_humidity;BME280_pressure;Samples;Min_cycle;Max_cycle;Signal;HPM_P1;HPM_P2
2023/10/28 00:01:51;;;;;;;9.23;3.90;;;;;;;10.09;100.00;99324.75;6275590;28;20115;-74
2023/10/28 00:04:53;;;;;;;13.60;4.80;;;;;;;10.12;100.00;99321.88;6275612;28;20040;-74
2023/10/28 00:07:54;;;;;;;7.43;3.35;;;;;;;10.12;100.00;99327.94;6275963;28;20049;-74
2023/10/28 00:10:57;;;;;;;11.00;4.90;;;;;;;10.10;100.00;99322.00;6275304;28;20049;-74
2023/10/28 00:13:58;;;;;;;10.77;3.72;;;;;;;10.09;100.00;99316.88;6275518;28;20457;-74
2023/10/28 00:17:00;;;;;;;11.30;4.28;;;;;;;10.08;100.00;99320.41;6275346;28;20057;-74
2023/10/28 00:20:04;;;;;;;16.73;4.95;;;;;;;10.10;100.00;99318.53;6275745;28;20072;-74
2023/10/28 00:23:07;;;;;;;11.35;4.82;;;;;;;10.14;100.00;99314.72;6275156;28;20142;-74
2023/10/28 00:26:10;;;;;;;10.60;4.38;;;;;;;10.12;100.00;99325.31;6275262;28;20142;-74
2023/10/28 00:29:12;;;;;;;8.98;4.55;;;;;;;10.02;100.00;99324.34;6275324;28;20186;-74
2023/10/28 00:32:13;;;;;;;11.65;4.28;;;;;;;10.00;100.00;99323.63;6274870;28;20056;-74
2023/10/28 00:35:15;;;;;;;11.77;4.57;;;;;;;9.97;100.00;99328.25;6275472;28;20068;-74
2023/10/28 00:38:17;;;;;;;13.27;4.18;;;;;;;10.00;100.00;99325.41;6275064;28;20088;-73
2023/10/28 00:41:20;;;;;;;10.13;4.03;;;;;;;10.07;100.00;99319.59;6275178;28;20072;-74
2023/10/28 00:44:22;;;;;;;12.95;4.30;;;;;;;9.98;100.00;99328.13;6274768;28;20452;-74
2023/10/28 00:47:24;;;;;;;13.07;4.38;;;;;;;10.03;100.00;99331.25;6274971;28;20075;-74
2023/10/28 00:50:29;;;;;;;11.02;4.75;;;;;;;10.01;100.00;99329.72;6275166;28;20055;-74
2023/10/28 00:53:31;;;;;;;10.95;4.45;;;;;;;10.04;100.00;99337.38;6274422;28;20056;-74
2023/10/28 00:56:34;;;;;;;11.57;4.18;;;;;;;10.07;100.00;99345.81;6273949;28;20369;-74
2023/10/28 00:59:35;;;;;;;10.45;4.38;;;;;;;10.09;100.00;99341.31;6266758;28;20053;-74
2023/10/28 01:02:38;;;;;;;11.75;5.22;;;;;;;10.10;100.00;99342.16;6273821;28;20052;-74
2023/10/28 01:05:40;;;;;;;11.90;5.40;;;;;;;10.13;100.00;99337.53;6267717;28;20052;-74
2023/10/28 01:08:42;;;;;;;11.75;5.43;;;;;;;10.12;100.00;99343.69;6278493;28;20068;-74
2023/10/28 01:11:44;;;;;;;15.82;5.35;;;;;;;10.12;100.00;99342.88;6279297;28;20354;-74
2023/10/28 01:14:46;;;;;;;13.38;5.30;;;;;;;10.08;100.00;99338.78;6279639;28;20052;-74
2023/10/28 01:17:48;;;;;;;14.10;5.28;;;;;;;10.03;100.00;99333.03;6271045;28;20048;-74
2023/10/28 01:20:50;;;;;;;17.33;6.20;;;;;;;10.05;100.00;99332.00;6279520;28;20048;-74
2023/10/28 01:23:52;;;;;;;15.63;6.93;;;;;;;10.08;100.00;99330.91;6270972;28;20045;-74
2023/10/28 01:26:54;;;;;;;15.25;6.28;;;;;;;10.03;100.00;99328.63;6279290;28;20045;-74
2023/10/28 01:29:56;;;;;;;10.57;4.97;;;;;;;10.11;100.00;99320.19;6279328;28;20060;-74
2023/10/28 01:32:57;;;;;;;12.48;5.55;;;;;;;10.10;100.00;99323.78;6278896;28;20228;-74
2023/10/28 01:35:59;;;;;;;11.77;4.55;;;;;;;10.09;100.00;99322.94;6279261;28;20045;-74
2023/10/28 01:39:03;;;;;;;12.40;4.93;;;;;;;10.08;100.00;99326.53;6278958;28;20049;-74
2023/10/28 01:42:05;;;;;;;10.27;4.80;;;;;;;10.06;100.00;99330.19;6278579;28;20045;-74
2023/10/28 01:45:07;;;;;;;10.60;4.78;;;;;;;10.03;100.00;99328.63;6278822;28;20060;-74
2023/10/28 01:48:08;;;;;;;10.32;4.82;;;;;;;10.02;100.00;99329.59;6278945;28;20049;-74
2023/10/28 01:51:10;;;;;;;12.85;4.20;;;;;;;10.06;100.00;99330.19;6278707;28;20056;-74
2023/10/28 01:54:12;;;;;;;13.40;5.07;;;;;;;10.06;100.00;99330.19;6278787;28;20045;-74
2023/10/28 01:57:14;;;;;;;8.00;4.00;;;;;;;10.08;100.00;99337.03;6278436;28;20056;-74
2023/10/28 02:00:17;;;;;;;14.55;5.55;;;;;;;10.06;100.00;99338.06;6278783;28;20052;-74
2023/10/28 02:03:18;;;;;;;8.07;3.60;;;;;;;10.05;100.00;99336.41;6278300;28;20059;-74
2023/10/28 02:06:19;;;;;;;13.02;6.40;;;;;;;10.04;100.00;99340.81;6278345;28;20048;-74
2023/10/28 02:09:22;;;;;;;9.90;4.72;;;;;;;10.05;100.00;99341.66;6278671;28;20053;-74
2023/10/28 02:12:24;;;;;;;11.82;4.68;;;;;;;10.06;100.00;99340.69;6277299;28;20052;-74
2023/10/28 02:15:26;;;;;;;15.13;5.63;;;;;;;10.07;100.00;99337.94;6278195;28;20045;-74
2023/10/28 02:18:27;;;;;;;11.15;4.97;;;;;;;10.09;100.00;99333.44;6277123;28;20049;-74
2023/10/28 02:21:28;;;;;;;20.48;5.47;;;;;;;10.09;100.00;99329.97;6277763;28;20052;-74
2023/10/28 02:24:31;;;;;;;9.23;4.72;;;;;;;10.07;100.00;99326.63;6278310;28;20058;-74
2023/10/28 02:27:33;;;;;;;15.02;6.20;;;;;;;10.07;100.00;99316.13;6277730;28;20446;-74
2023/10/28 02:30:38;;;;;;;9.88;4.82;;;;;;;9.98;100.00;99320.25;6277957;28;20061;-73
2023/10/28 02:33:40;;;;;;;12.00;5.45;;;;;;;9.93;100.00;99334.69;6278001;28;20053;-74
2023/10/28 02:36:41;;;;;;;10.52;4.80;;;;;;;9.89;100.00;99342.75;6277415;28;20049;-74
2023/10/28 02:39:44;;;;;;;13.25;5.53;;;;;;;9.85;100.00;99332.59;6277988;28;20464;-74
2023/10/28 02:42:45;;;;;;;13.30;4.80;;;;;;;9.85;100.00;99337.84;6277233;28;20060;-74
2023/10/28 02:45:47;;;;;;;10.32;4.40;;;;;;;9.79;100.00;99339.13;6277503;28;20045;-74
2023/10/28 02:48:49;;;;;;;9.93;5.25;;;;;;;9.76;100.00;99344.59;6277682;28;20049;-74
2023/10/28 02:51:50;;;;;;;8.00;3.72;;;;;;;9.77;100.00;99343.69;6276980;28;20391;-74
2023/10/28 02:54:53;;;;;;;8.55;4.45;;;;;;;9.82;100.00;99349.44;6276727;28;20060;-74
2023/10/28 02:57:55;;;;;;;12.75;5.50;;;;;;;9.79;100.00;99336.53;6268897;28;20049;-74
2023/10/28 03:00:57;;;;;;;13.32;5.47;;;;;;;9.81;100.00;99344.28;6271892;28;20053;-74
2023/10/28 03:03:58;;;;;;;15.00;5.65;;;;;;;9.82;100.00;99345.97;6273689;28;20053;-74
2023/10/28 03:07:00;;;;;;;12.40;5.18;;;;;;;9.82;100.00;99354.66;6272367;28;20433;-74
2023/10/28 03:10:02;;;;;;;10.63;4.10;;;;;;;9.85;100.00;99348.34;6276792;28;20076;-74
2023/10/28 03:13:04;;;;;;;10.07;4.97;;;;;;;9.89;100.00;99349.81;6264207;28;20053;-74
2023/10/28 03:16:06;;;;;;;13.02;5.80;;;;;;;9.91;100.00;99350.53;6251885;28;20345;-74
2023/10/28 03:19:07;;;;;;;10.90;5.10;;;;;;;9.92;100.00;99349.59;6251800;28;20434;-74
2023/10/28 03:22:09;;;;;;;13.00;4.93;;;;;;;9.97;100.00;99351.88;6251677;28;20065;-74
2023/10/28 03:25:12;;;;;;;11.63;4.97;;;;;;;9.98;100.00;99351.75;6252095;28;20049;-74
2023/10/28 03:28:13;;;;;;;11.40;5.68;;;;;;;9.97;100.00;99350.09;6251865;28;20049;-74
2023/10/28 03:31:14;;;;;;;13.90;5.72;;;;;;;9.97;100.00;99346.63;6251469;28;20049;-74
2023/10/28 03:34:16;;;;;;;14.75;6.47;;;;;;;9.93;100.00;99346.00;6251635;28;20059;-74
2023/10/28 03:37:18;;;;;;;13.77;5.65;;;;;;;9.95;100.00;99340.63;6251524;28;20050;-74
2023/10/28 03:40:20;;;;;;;14.27;6.15;;;;;;;9.94;100.00;99345.06;6257960;28;20045;-75
2023/10/28 03:43:22;;;;;;;18.00;5.07;;;;;;;9.97;100.00;99333.50;6267405;28;20449;-74
2023/10/28 03:46:25;;;;;;;14.05;5.07;;;;;;;10.01;100.00;99341.03;6275924;28;20139;-75
2023/10/28 03:49:27;;;;;;;15.65;6.20;;;;;;;10.01;100.00;99342.84;6275997;28;20057;-75
2023/10/28 03:52:28;;;;;;;15.73;5.85;;;;;;;9.99;100.00;99336.84;6275128;28;20045;-74
2023/10/28 03:55:31;;;;;;;13.18;6.68;;;;;;;9.97;100.00;99336.97;6276162;28;20053;-74
2023/10/28 03:58:32;;;;;;;14.50;6.45;;;;;;;9.98;100.00;99335.19;6276299;28;20056;-75
2023/10/28 04:01:34;;;;;;;15.90;6.80;;;;;;;9.95;100.00;99341.50;6275335;28;20049;-75
2023/10/28 04:04:35;;;;;;;11.93;5.38;;;;;;;9.97;100.00;99346.63;6276436;28;20045;-74
2023/10/28 04:07:36;;;;;;;16.33;6.15;;;;;;;9.99;100.00;99342.09;6275571;28;20433;-75
2023/10/28 04:10:39;;;;;;;12.90;6.20;;;;;;;10.01;100.00;99342.84;6275763;28;20076;-75
2023/10/28 04:13:41;;;;;;;11.63;6.15;;;;;;;10.01;100.00;99348.91;6275603;28;20049;-74
2023/10/28 04:16:42;;;;;;;13.70;5.57;;;;;;;10.01;100.00;99346.28;6275310;28;20345;-74
2023/10/28 04:19:43;;;;;;;11.43;5.10;;;;;;;10.05;100.00;99357.41;6275571;28;20059;-74
2023/10/28 04:22:45;;;;;;;13.35;6.47;;;;;;;10.03;100.00;99348.78;6275367;28;20059;-74
2023/10/28 04:25:48;;;;;;;13.65;5.63;;;;;;;10.05;100.00;99347.75;6275488;28;20052;-75
2023/10/28 04:28:49;;;;;;;20.67;7.15;;;;;;;10.02;100.00;99345.34;6275137;28;20183;-75
2023/10/28 04:31:51;;;;;;;12.75;5.88;;;;;;;10.03;100.00;99343.53;6275101;28;20053;-75
2023/10/28 04:34:52;;;;;;;17.77;7.15;;;;;;;9.99;100.00;99342.97;6275205;28;20045;-75
2023/10/28 04:37:54;;;;;;;13.57;5.90;;;;;;;10.01;100.00;99354.16;6275189;28;20064;-74
2023/10/28 04:40:57;;;;;;;16.52;7.85;;;;;;;10.02;100.00;99347.13;6274815;28;20048;-74
2023/10/28 04:43:59;;;;;;;13.23;5.70;;;;;;;10.04;100.00;99348.69;6274503;28;20045;-74
2023/10/28 04:47:01;;;;;;;15.43;6.45;;;;;;;10.04;100.00;99353.94;6275090;28;20060;-74
2023/10/28 04:50:02;;;;;;;13.60;6.85;;;;;;;10.03;100.00;99352.25;6275398;28;20147;-74
2023/10/28 04:53:04;;;;;;;15.43;6.90;;;;;;;10.04;100.00;99353.13;6274853;28;20049;-75
2023/10/28 04:56:08;;;;;;;14.27;6.45;;;;;;;10.07;100.00;99350.25;6274205;28;20053;-74
2023/10/28 04:59:10;;;;;;;13.90;6.55;;;;;;;10.09;100.00;99350.97;6266888;28;20052;-74
2023/10/28 05:02:11;;;;;;;15.43;6.95;;;;;;;10.07;100.00;99353.69;6274575;28;20056;-74
2023/10/28 05:05:14;;;;;;;14.88;6.82;;;;;;;10.05;100.00;99344.28;6269724;28;20049;-74
2023/10/28 05:08:16;;;;;;;17.95;7.65;;;;;;;10.08;100.00;99351.91;6271847;28;20053;-74
2023/10/28 05:11:18;;;;;;;20.08;6.75;;;;;;;10.07;100.00;99348.44;6274742;28;20049;-74
2023/10/28 05:14:20;;;;;;;12.27;5.72;;;;;;;10.13;100.00;99362.94;6274815;28;20056;-74
2023/10/28 05:17:21;;;;;;;16.35;7.03;;;;;;;10.08;100.00;99363.28;6264288;28;20042;-74
2023/10/28 05:20:24;;;;;;;19.55;8.32;;;;;;;10.05;100.00;99363.50;6272756;28;20114;-74
2023/10/28 05:23:25;;;;;;;16.63;7.00;;;;;;;10.06;100.00;99362.53;6274574;28;20049;-74
2023/10/28 05:26:28;;;;;;;17.50;6.70;;;;;;;10.04;100.00;99363.63;6274523;28;20052;-74
2023/10/28 05:29:30;;;;;;;11.07;5.68;;;;;;;10.07;100.00;99364.19;6274826;28;20060;-74
2023/10/28 05:32:31;;;;;;;15.10;6.88;;;;;;;10.03;100.00;99367.16;6274521;28;20060;-74
2023/10/28 05:35:32;;;;;;;15.05;6.78;;;;;;;10.10;100.00;99371.03;6266601;28;20049;-74
2023/10/28 05:38:34;;;;;;;15.27;7.72;;;;;;;10.12;100.00;99372.56;6274033;28;20056;-74
2023/10/28 05:41:37;;;;;;;13.02;5.72;;;;;;;10.11;100.00;99381.41;6273992;28;20381;-74
2023/10/28 05:44:38;;;;;;;15.43;6.55;;;;;;;10.07;100.00;99373.88;6274374;28;20045;-74
2023/10/28 05:47:40;;;;;;;14.57;7.32;;;;;;;10.05;100.00;99378.41;6274398;28;20084;-74
2023/10/28 05:50:41;;;;;;;14.70;6.82;;;;;;;10.09;100.00;99378.06;6274524;28;20048;-74
2023/10/28 05:53:42;;;;;;;15.63;7.53;;;;;;;10.08;100.00;99379.03;6276154;28;20463;-74
2023/10/28 05:56:45;;;;;;;14.07;6.15;;;;;;;10.09;100.00;99385.94;6278724;28;20068;-75
2023/10/28 05:59:47;;;;;;;13.68;6.53;;;;;;;10.12;100.00;99390.13;6278737;28;20049;-75
2023/10/28 06:02:48;;;;;;;12.30;5.47;;;;;;;10.09;100.00;99393.81;6278509;28;20055;-75
2023/10/28 06:05:49;;;;;;;12.95;5.43;;;;;;;10.06;100.00;99394.03;6278466;28;20445;-75
2023/10/28 06:08:51;;;;;;;13.30;6.38;;;;;;;10.05;100.00;99391.53;6278342;28;20041;-75
2023/10/28 06:11:54;;;;;;;11.38;5.57;;;;;;;10.06;100.00;99399.28;6278491;28;20045;-75
2023/10/28 06:14:56;;;;;;;12.93;7.32;;;;;;;10.05;100.00;99405.47;6278343;28;20504;-75
2023/10/28 06:17:58;;;;;;;11.02;5.65;;;;;;;10.08;100.00;99407.91;6278060;28;20052;-74
2023/10/28 06:21:00;;;;;;;13.25;6.30;;;;;;;10.12;100.00;99408.50;6277991;28;20353;-74
2023/10/28 06:24:02;;;;;;;14.82;6.10;;;;;;;10.12;100.00;99404.06;6278105;28;20056;-74
2023/10/28 06:27:05;;;;;;;11.38;5.70;;;;;;;10.15;100.00;99413.53;6278071;28;20049;-74
2023/10/28 06:30:11;;;;;;;13.98;5.93;;;;;;;10.17;100.00;99416.88;6278112;28;20153;-74
2023/10/28 06:33:13;;;;;;;12.05;5.35;;;;;;;10.14;100.00;99417.94;6276760;28;20044;-74
2023/10/28 06:36:14;;;;;;;11.23;5.40;;;;;;;10.19;100.00;99425.47;6264140;28;20049;-75
2023/10/28 06:39:17;;;;;;;13.77;5.72;;;;;;;10.15;100.00;99426.66;6265774;28;20441;-74
2023/10/28 06:42:19;;;;;;;9.90;4.78;;;;;;;10.20;100.00;99428.94;6276761;28;20342;-74
2023/10/28 06:45:21;;;;;;;14.07;5.80;;;;;;;10.19;100.00;99432.53;6275068;28;20053;-74
2023/10/28 06:48:22;;;;;;;12.38;6.03;;;;;;;10.20;100.00;99429.78;6271203;28;20060;-74
2023/10/28 06:51:24;;;;;;;17.20;5.05;;;;;;;10.21;100.00;99428.81;6272810;28;20052;-75
2023/10/28 06:54:25;;;;;;;20.15;6.22;;;;;;;10.21;100.00;99433.22;6275019;28;20049;-74
2023/10/28 06:57:30;;;;;;;10.23;4.78;;;;;;;10.20;100.00;99440.28;6271063;28;20338;-74
2023/10/28 07:00:31;;;;;;;8.45;4.20;;;;;;;10.23;100.00;99444.47;6277024;28;20058;-74
2023/10/28 07:03:33;;;;;;;13.68;5.47;;;;;;;10.24;100.00;99449.63;6267886;28;20051;-74
2023/10/28 07:06:34;;;;;;;9.15;4.45;;;;;;;10.20;100.00;99450.78;6268395;28;20065;-74
2023/10/28 07:09:36;;;;;;;9.50;5.13;;;;;;;10.19;100.00;99456.16;6276573;28;20441;-74
2023/10/28 07:12:39;;;;;;;9.93;5.38;;;;;;;10.19;100.00;99451.72;6268356;28;20445;-74
2023/10/28 07:15:41;;;;;;;12.52;4.95;;;;;;;10.24;100.00;99459.28;6252087;28;20049;-75
2023/10/28 07:18:42;;;;;;;9.48;5.15;;;;;;;10.22;100.00;99456.78;6252173;28;20048;-74
2023/10/28 07:21:44;;;;;;;12.35;6.00;;;;;;;10.25;100.00;99463.59;6251222;28;20053;-74
2023/10/28 07:24:45;;;;;;;10.05;4.15;;;;;;;10.27;100.00;99466.97;6268653;28;20079;-74
2023/10/28 07:27:48;;;;;;;10.32;4.18;;;;;;;10.26;100.00;99465.28;6276081;28;20037;-74
2023/10/28 07:30:51;;;;;;;10.85;4.93;;;;;;;10.29;100.00;99472.94;6269297;28;20456;-74
2023/10/28 07:33:55;;;;;;;10.80;4.40;;;;;;;10.32;100.00;99473.56;6274462;28;20049;-74
2023/10/28 07:36:59;;;;;;;9.70;5.10;;;;;;;10.36;100.00;99471.56;6265633;28;20433;-75
2023/10/28 07:40:01;;;;;;;10.82;4.57;;;;;;;10.39;100.00;99484.44;6267622;28;20068;-74
2023/10/28 07:43:03;;;;;;;11.52;4.43;;;;;;;10.41;100.00;99487.81;6267713;28;20049;-74
2023/10/28 07:46:05;;;;;;;13.02;4.15;;;;;;;10.40;100.00;99486.09;6276012;28;20057;-74
2023/10/28 07:49:06;;;;;;;10.38;3.70;;;;;;;10.46;100.00;99487.47;6275859;28;20437;-74
2023/10/28 07:52:08;;;;;;;8.63;3.63;;;;;;;10.50;100.00;99497.66;6275632;28;20044;-74
2023/10/28 07:55:10;;;;;;;13.30;4.13;;;;;;;10.49;100.00;99498.59;6267787;28;20052;-74
2023/10/28 07:58:13;;;;;;;7.07;3.28;;;;;;;10.45;100.00;99491.06;6273100;28;20504;-74
2023/10/28 08:01:16;;;;;;;11.25;3.60;;;;;;;10.47;100.00;99494.41;6265640;28;20044;-75
2023/10/28 08:04:18;;;;;;;14.68;3.45;;;;;;;10.45;100.00;99505.03;6274992;28;20044;-74
2023/10/28 08:07:19;;;;;;;8.45;3.33;;;;;;;10.40;100.00;99494.00;6264577;28;20453;-74
2023/10/28 08:10:23;;;;;;;10.20;3.00;;;;;;;10.43;100.00;99506.06;6270108;28;20049;-74
2023/10/28 08:13:25;;;;;;;7.78;2.72;;;;;;;10.42;100.00;99510.50;6273116;28;20045;-74
2023/10/28 08:16:27;;;;;;;7.10;2.83;;;;;;;10.46;100.00;99516.38;6266356;28;20456;-74
2023/10/28 08:19:29;;;;;;;11.65;2.88;;;;;;;10.53;100.00;99518.41;6268608;28;20045;-74
2023/10/28 08:22:30;;;;;;;4.82;2.45;;;;;;;10.56;100.00;99512.94;6269853;28;20053;-74
2023/10/28 08:25:33;;;;;;;7.18;2.47;;;;;;;10.59;100.00;99512.72;6265999;28;20049;-74
2023/10/28 08:28:36;;;;;;;7.88;2.10;;;;;;;10.68;100.00;99528.78;6274704;28;20543;-74
2023/10/28 08:31:37;;;;;;;4.55;1.88;;;;;;;10.85;100.00;99533.59;6264536;28;20045;-74
2023/10/28 08:34:38;;;;;;;3.10;1.73;;;;;;;10.94;100.00;99527.66;6258815;28;20045;-74
2023/10/28 08:37:40;;;;;;;5.07;2.05;;;;;;;10.79;100.00;99532.28;6250646;28;20042;-74
2023/10/28 08:40:46;;;;;;;4.05;2.28;;;;;;;10.72;100.00;99536.31;6266588;28;20087;-74
2023/10/28 08:43:48;;;;;;;7.45;1.88;;;;;;;10.74;100.00;99542.28;6265200;28;20050;-74
2023/10/28 08:46:50;;;;;;;3.25;1.60;;;;;;;10.74;100.00;99542.28;6266375;28;20045;-72
2023/10/28 08:49:53;;;;;;;4.93;1.65;;;;;;;10.77;100.00;99539.44;6267086;28;20065;-72
2023/10/28 08:52:57;;;;;;;12.23;3.92;;;;;;;10.75;100.00;99540.50;6267783;28;20373;-72
2023/10/28 08:56:00;;;;;;;9.75;2.72;;;;;;;10.78;100.00;99542.91;6271006;28;20064;-72
2023/10/28 08:59:04;;;;;;;5.50;1.60;;;;;;;10.90;100.00;99558.63;6265487;28;20445;-73
2023/10/28 09:02:08;;;;;;;5.72;1.80;;;;;;;10.90;100.00;99553.38;6265132;28;20045;-72
2023/10/28 09:05:09;;;;;;;2.30;1.50;;;;;;;10.89;100.00;99556.09;6267061;28;20045;-73
2023/10/28 09:08:11;;;;;;;2.10;1.60;;;;;;;10.80;100.00;99560.22;6260498;28;20043;-73
2023/10/28 09:11:12;;;;;;;1.55;1.08;;;;;;;10.84;100.00;99561.69;6256888;28;20054;-72
2023/10/28 09:14:15;;;;;;;4.72;1.17;;;;;;;10.77;100.00;99565.72;6269348;28;20052;-72
2023/10/28 09:17:20;;;;;;;8.60;1.50;;;;;;;10.79;100.00;99569.06;6268723;28;20045;-72
2023/10/28 09:20:21;;;;;;;5.00;2.15;;;;;;;10.83;100.00;99573.16;6268108;28;20492;-72
2023/10/28 09:23:24;;;;;;;4.50;1.50;;;;;;;10.97;100.00;99573.94;6270923;28;20049;-73
2023/10/28 09:26:25;;;;;;;1.75;1.20;;;;;;;11.05;100.00;99575.03;6265045;28;20041;-73
2023/10/28 09:29:30;;;;;;;1.92;1.55;;;;;;;11.02;100.00;99574.44;6275980;28;20048;-73
2023/10/28 09:32:33;;;;;;;2.05;1.20;;;;;;;11.10;100.00;99578.16;6276093;28;20281;-73
2023/10/28 09:35:35;;;;;;;5.80;2.00;;;;;;;11.10;100.00;99582.59;6271442;28;20049;-73
2023/10/28 09:38:40;;;;;;;2.47;1.45;;;;;;;11.13;100.00;99579.75;6276782;28;20064;-75
2023/10/28 09:41:44;;;;;;;1.83;1.55;;;;;;;11.20;100.00;99582.75;6267878;28;20466;-74
2023/10/28 09:44:48;;;;;;;1.65;1.48;;;;;;;11.22;100.00;99586.94;6278586;28;20354;-75
2023/10/28 09:47:55;;;;;;;3.50;1.70;;;;;;;11.24;100.00;99587.66;6270794;28;20045;-72
2023/10/28 09:50:58;;;;;;;7.55;1.58;;;;;;;11.22;100.00;99591.34;6269057;28;20476;-72
2023/10/28 09:54:06;;;;;;;6.20;1.50;;;;;;;11.22;100.00;99583.44;6272086;28;20049;-73
2023/10/28 09:57:09;;;;;;;3.42;1.48;;;;;;;11.31;100.00;99588.88;6266849;28;20049;-74
2023/10/28 10:00:18;;;;;;;8.50;1.98;;;;;;;11.18;100.00;99583.69;6278639;28;20111;-74
2023/10/28 10:03:35;;;;;;;4.45;1.40;;;;;;;11.27;100.00;99576.09;6268912;28;20056;-74
2023/10/28 10:06:38;;;;;;;3.22;1.60;;;;;;;11.37;100.00;99583.16;6276554;28;20558;-73
2023/10/28 10:09:43;;;;;;;3.53;1.40;;;;;;;11.36;100.00;99581.50;6270157;28;20057;-73
2023/10/28 10:12:45;;;;;;;3.42;1.25;;;;;;;11.38;100.00;99581.38;6272985;28;20050;-74
2023/10/28 10:15:55;;;;;;;3.15;1.75;;;;;;;11.43;100.00;99573.97;6269883;28;20215;-73
2023/10/28 10:18:59;;;;;;;2.60;1.60;;;;;;;11.49;100.00;99576.16;6278184;28;20464;-74
2023/10/28 10:22:03;;;;;;;4.05;1.88;;;;;;;11.42;100.00;99581.00;6278001;28;20452;-73
2023/10/28 10:25:05;;;;;;;4.20;2.03;;;;;;;11.49;100.00;99583.16;6278081;28;20045;-73
2023/10/28 10:28:13;;;;;;;4.57;1.67;;;;;;;11.48;100.00;99579.72;6276671;28;20040;-73
2023/10/28 10:31:18;;;;;;;2.13;1.58;;;;;;;11.54;100.00;99575.78;6276812;28;20041;-74
2023/10/28 10:34:33;;;;;;;4.13;1.92;;;;;;;11.57;100.00;99581.63;6269204;28;20041;-73
2023/10/28 10:37:35;;;;;;;2.80;1.80;;;;;;;11.70;100.00;99578.91;6270573;28;20040;-74
2023/10/28 10:40:49;;;;;;;5.00;2.13;;;;;;;11.63;100.00;99572.47;6263294;28;20442;-74
2023/10/28 10:43:51;;;;;;;2.80;1.98;;;;;;;11.73;100.00;99567.31;6265457;28;20048;-75
2023/10/28 10:46:56;;;;;;;4.07;1.70;;;;;;;11.71;100.00;99574.47;6272943;28;20061;-74
2023/10/28 10:49:58;;;;;;;2.97;1.98;;;;;;;11.75;100.00;99573.28;6270445;28;20045;-74
2023/10/28 10:53:03;;;;;;;2.78;1.73;;;;;;;11.82;100.00;99569.25;6268167;28;20053;-74
2023/10/28 10:56:05;;;;;;;4.20;2.08;;;;;;;11.89;100.00;99568.66;6270892;28;20048;-74
2023/10/28 10:59:06;;;;;;;5.55;2.70;;;;;;;11.91;100.00;99568.56;6267863;28;20041;-74
2023/10/28 11:02:10;;;;;;;4.00;1.77;;;;;;;12.02;100.00;99565.09;6267510;28;20049;-74
2023/10/28 11:05:12;;;;;;;7.35;1.65;;;;;;;11.95;100.00;99566.53;6276364;28;20045;-74
2023/10/28 11:08:14;;;;;;;4.65;1.65;;;;;;;11.95;100.00;99569.16;6276070;28;20056;-78
2023/10/28 11:11:16;;;;;;;3.95;1.85;;;;;;;12.06;100.00;99569.16;6272855;28;20187;-74
2023/10/28 11:14:18;;;;;;;2.55;1.73;;;;;;;12.16;100.00;99568.31;6267357;28;20045;-74
2023/10/28 11:17:21;;;;;;;4.32;1.90;;;;;;;12.23;100.00;99560.78;6271106;28;20048;-73
2023/10/28 11:20:23;;;;;;;3.97;1.80;;;;;;;12.27;100.00;99564.84;6267290;28;20053;-73
2023/10/28 11:23:26;;;;;;;4.63;1.30;;;;;;;12.25;100.00;99564.09;6264434;28;20045;-74
2023/10/28 11:26:28;;;;;;;2.75;1.50;;;;;;;12.09;100.00;99568.94;6264225;28;20053;-76
2023/10/28 11:29:30;;;;;;;5.75;1.95;;;;;;;12.04;100.00;99568.44;6260156;28;20094;-73
2023/10/28 11:32:39;;;;;;;1.35;1.10;;;;;;;12.04;100.00;99564.03;6263622;28;20350;-73
2023/10/28 11:35:40;;;;;;;5.07;1.00;;;;;;;12.00;100.00;99565.22;6273483;28;20056;-74
2023/10/28 11:38:43;;;;;;;4.95;1.48;;;;;;;11.99;100.00;99562.69;6274426;28;20045;-72
2023/10/28 11:41:47;;;;;;;1.90;1.00;;;;;;;12.03;100.00;99564.13;6275035;28;20075;-73
2023/10/28 11:44:49;;;;;;;2.80;0.90;;;;;;;12.06;100.00;99566.53;6239441;28;1019336;-73
2023/10/28 11:47:52;;;;;;;2.25;1.00;;;;;;;12.07;100.00;99568.19;6276305;28;20375;-73
2023/10/28 11:50:54;;;;;;;6.78;1.73;;;;;;;12.02;100.00;99567.72;6275684;28;20048;-74
2023/10/28 11:53:55;;;;;;;0.88;0.77;;;;;;;12.08;100.00;99561.97;6276017;28;20055;-74
2023/10/28 11:56:57;;;;;;;1.52;1.00;;;;;;;12.07;100.00;99557.66;6276410;28;20049;-74
2023/10/28 11:59:58;;;;;;;3.13;1.10;;;;;;;12.03;100.00;99564.94;6276117;28;20048;-74
2023/10/28 12:03:04;;;;;;;1.63;1.25;;;;;;;12.00;100.00;99562.59;6275615;28;20357;-73
2023/10/28 12:06:06;;;;;;;4.13;1.70;;;;;;;11.91;100.00;99571.19;6275825;28;20508;-74
2023/10/28 12:09:11;;;;;;;2.38;1.20;;;;;;;11.90;100.00;99567.72;6276444;28;20056;-74
2023/10/28 12:12:12;;;;;;;1.77;0.85;;;;;;;11.88;100.00;99569.63;6275619;28;20437;-75
2023/10/28 12:15:14;;;;;;;1.80;0.82;;;;;;;11.77;100.00;99563.50;6275499;28;20385;-74
2023/10/28 12:18:17;;;;;;;1.65;0.90;;;;;;;11.68;100.00;99565.06;6275689;28;20048;-75
2023/10/28 12:21:18;;;;;;;5.63;0.70;;;;;;;11.61;100.00;99563.81;6275096;28;20060;-74
2023/10/28 12:24:20;;;;;;;1.63;0.82;;;;;;;11.53;100.00;99568.84;6275775;28;20048;-76
2023/10/28 12:27:21;;;;;;;2.35;0.88;;;;;;;11.54;100.00;99568.72;6275383;28;20049;-76
2023/10/28 12:30:23;;;;;;;0.80;0.65;;;;;;;11.54;100.00;99573.16;6275450;28;20052;-75
2023/10/28 12:33:26;;;;;;;2.38;0.90;;;;;;;11.56;100.00;99573.88;6275178;28;20364;-75
2023/10/28 12:36:28;;;;;;;1.40;0.80;;;;;;;11.61;100.00;99566.47;6275542;28;20060;-75
2023/10/28 12:39:29;;;;;;;2.15;1.10;;;;;;;11.60;100.00;99563.00;6275235;28;20096;-75
2023/10/28 12:42:31;;;;;;;3.67;1.02;;;;;;;11.55;100.00;99564.31;6275043;28;20052;-75
2023/10/28 12:45:33;;;;;;;2.42;1.10;;;;;;;11.58;100.00;99558.78;6275125;28;20052;-74
2023/10/28 12:48:36;;;;;;;3.70;0.98;;;;;;;11.68;100.00;99562.41;6275060;28;20524;-76
2023/10/28 12:51:37;;;;;;;1.27;1.00;;;;;;;11.76;100.00;99559.16;6274976;28;20160;-75
2023/10/28 12:54:39;;;;;;;3.20;1.00;;;;;;;11.79;100.00;99558.94;6275048;28;20049;-75
2023/10/28 12:57:40;;;;;;;1.58;0.93;;;;;;;11.85;100.00;99564.59;6275317;28;20049;-75
2023/10/28 13:00:42;;;;;;;1.05;0.95;;;;;;;11.95;100.00;99559.47;6274613;28;20433;-75
2023/10/28 13:03:45;;;;;;;0.90;0.82;;;;;;;11.95;100.00;99556.00;6277283;28;20053;-75
2023/10/28 13:06:46;;;;;;;1.63;0.82;;;;;;;11.90;100.00;99559.84;6280015;28;20056;-75
2023/10/28 13:09:48;;;;;;;1.67;0.73;;;;;;;11.88;100.00;99553.00;6279886;28;20464;-75
2023/10/28 13:12:49;;;;;;;0.93;0.82;;;;;;;11.85;100.00;99551.44;6279863;28;20045;-75
2023/10/28 13:15:51;;;;;;;2.78;0.60;;;;;;;11.85;100.00;99553.22;6280310;28;20052;-74
2023/10/28 13:18:54;;;;;;;4.95;0.90;;;;;;;11.75;100.00;99553.06;6279832;28;20052;-75
2023/10/28 13:21:57;;;;;;;0.80;0.47;;;;;;;11.76;100.00;99552.09;6279235;28;20060;-75
2023/10/28 13:24:58;;;;;;;0.68;0.40;;;;;;;11.98;100.00;99545.22;6279710;28;20103;-78
2023/10/28 13:28:00;;;;;;;2.22;0.60;;;;;;;12.07;100.00;99541.84;6279614;28;20053;-75
2023/10/28 13:31:01;;;;;;;0.82;0.52;;;;;;;12.08;100.00;99536.50;6279011;28;20041;-75
2023/10/28 13:34:04;;;;;;;1.17;0.63;;;;;;;12.05;100.00;99543.78;6279337;28;20045;-75
2023/10/28 13:37:07;;;;;;;0.98;0.55;;;;;;;11.93;100.00;99550.84;6279470;28;20060;-75
2023/10/28 13:40:10;;;;;;;6.88;1.55;;;;;;;11.87;100.00;99548.69;6279054;28;20045;-77
2023/10/28 13:43:11;;;;;;;1.20;0.50;;;;;;;11.86;100.00;99558.41;6279452;28;20049;-77
2023/10/28 13:46:13;;;;;;;1.33;0.55;;;;;;;11.81;100.00;99550.00;6278975;28;20049;-77
2023/10/28 13:49:19;;;;;;;1.58;0.90;;;;;;;11.77;100.00;99559.06;6279044;28;20052;-77
2023/10/28 13:52:22;;;;;;;0.95;0.63;;;;;;;11.81;100.00;99565.78;6278732;28;20076;-77
2023/10/28 13:55:24;;;;;;;1.52;0.85;;;;;;;11.78;100.00;99563.38;6278809;28;20048;-77
2023/10/28 13:58:25;;;;;;;2.95;1.08;;;;;;;11.77;100.00;99572.22;6278790;28;20052;-76
2023/10/28 14:01:27;;;;;;;0.80;0.60;;;;;;;11.77;100.00;99568.78;6278752;28;20143;-76
2023/10/28 14:04:29;;;;;;;1.48;0.85;;;;;;;11.80;100.00;99569.34;6278970;28;20048;-76